sensor_id;sensor_type;location;lat;lon;timestamp;temperature;humidity
4964;DHT22;2497;47.410;9.740;2023-11-22T00:02:30;6.70;99.90
4964;DHT22;2497;47.410;9.740;2023-11-22T00:04:58;6.70;99.90
4964;DHT22;2497;47.410;9.740;2023-11-22T00:07:25;6.70;99.90
4964;DHT22;2497;47.410;9.740;2023-11-22T00:09:54;6.70;99.90
4964;DHT22;2497;47.410;9.740;2023-11-22T00:12:22;6.60;99.90
4964;DHT22;2497;47.410;9.740;2023-11-22T00:14:50;6.60;99.90
4964;DHT22;2497;47.410;9.740;2023-11-22T00:17:17;6.60;99.90
4964;DHT22;2497;47.410;9.740;2023-11-22T00:19:46;6.60;99.90
4964;DHT22;2497;47.410;9.740;2023-11-22T00:22:13;6.50;99.90
4964;DHT22;2497;47.410;9.740;2023-11-22T00:24:40;6.50;99.90
4964;DHT22;2497;47.410;9.740;2023-11-22T00:27:08;6.50;99.90
4964;DHT22;2497;47.410;9.740;2023-11-22T00:29:36;6.60;99.90
4964;DHT22;2497;47.410;9.740;2023-11-22T00:32:03;6.60;99.90
4964;DHT22;2497;47.410;9.740;2023-11-22T00:34:30;6.50;99.90
4964;DHT22;2497;47.410;9.740;2023-11-22T00:36:59;6.50;99.90
4964;DHT22;2497;47.410;9.740;2023-11-22T00:39:26;6.50;99.90
4964;DHT22;2497;47.410;9.740;2023-11-22T00:41:53;6.50;99.90
4964;DHT22;2497;47.410;9.740;2023-11-22T00:44:21;6.50;99.90
4964;DHT22;2497;47.410;9.740;2023-11-22T00:46:48;6.50;99.90
4964;DHT22;2497;47.410;9.740;2023-11-22T00:49:15;6.40;99.90
4964;DHT22;2497;47.410;9.740;2023-11-22T00:51:43;6.50;99.90
4964;DHT22;2497;47.410;9.740;2023-11-22T00:54:12;6.50;99.90
4964;DHT22;2497;47.410;9.740;2023-11-22T00:56:40;6.50;99.90
4964;DHT22;2497;47.410;9.740;2023-11-22T00:59:07;6.50;99.90
4964;DHT22;2497;47.410;9.740;2023-11-22T01:01:35;6.60;99.90
4964;DHT22;2497;47.410;9.740;2023-11-22T01:04:02;6.50;99.90
4964;DHT22;2497;47.410;9.740;2023-11-22T01:06:30;6.40;99.90
4964;DHT22;2497;47.410;9.740;2023-11-22T01:08:57;6.40;99.90
4964;DHT22;2497;47.410;9.740;2023-11-22T01:11:26;6.40;99.90
4964;DHT22;2497;47.410;9.740;2023-11-22T01:13:53;6.40;99.90
4964;DHT22;2497;47.410;9.740;2023-11-22T01:16:20;6.40;99.90
4964;DHT22;2497;47.410;9.740;2023-11-22T01:18:48;6.30;99.90
4964;DHT22;2497;47.410;9.740;2023-11-22T01:21:15;6.30;99.90
4964;DHT22;2497;47.410;9.740;2023-11-22T01:23:42;6.40;99.90
4964;DHT22;2497;47.410;9.740;2023-11-22T01:26:11;6.40;99.90
4964;DHT22;2497;47.410;9.740;2023-11-22T01:28:40;6.30;99.90
4964;DHT22;2497;47.410;9.740;2023-11-22T01:31:11;6.30;99.90
4964;DHT22;2497;47.410;9.740;2023-11-22T01:33:39;6.30;99.90
4964;DHT22;2497;47.410;9.740;2023-11-22T01:36:07;6.20;99.90
4964;DHT22;2497;47.410;9.740;2023-11-22T01:38:34;6.20;99.90
4964;DHT22;2497;47.410;9.740;2023-11-22T01:41:01;6.20;99.90
4964;DHT22;2497;47.410;9.740;2023-11-22T01:43:29;6.30;99.90
4964;DHT22;2497;47.410;9.740;2023-11-22T01:45:58;6.30;99.90
4964;DHT22;2497;47.410;9.740;2023-11-22T01:48:26;6.40;99.90
4964;DHT22;2497;47.410;9.740;2023-11-22T01:50:54;6.50;99.90
4964;DHT22;2497;47.410;9.740;2023-11-22T01:53:21;6.50;99.90
4964;DHT22;2497;47.410;9.740;2023-11-22T01:55:48;6.50;99.90
4964;DHT22;2497;47.410;9.740;2023-11-22T01:58:16;6.40;99.90
4964;DHT22;2497;47.410;9.740;2023-11-22T02:00:45;6.40;99.90
4964;DHT22;2497;47.410;9.740;2023-11-22T02:03:17;6.40;99.90
4964;DHT22;2497;47.410;9.740;2023-11-22T02:05:44;6.40;99.90
4964;DHT22;2497;47.410;9.740;2023-11-22T02:08:12;6.30;99.90
4964;DHT22;2497;47.410;9.740;2023-11-22T02:10:40;6.30;99.90
4964;DHT22;2497;47.410;9.740;2023-11-22T02:13:07;6.30;99.90
4964;DHT22;2497;47.410;9.740;2023-11-22T02:15:36;6.30;99.90
4964;DHT22;2497;47.410;9.740;2023-11-22T02:18:03;6.20;99.90
4964;DHT22;2497;47.410;9.740;2023-11-22T02:20:32;6.20;99.90
4964;DHT22;2497;47.410;9.740;2023-11-22T02:23:07;6.20;99.90
4964;DHT22;2497;47.410;9.740;2023-11-22T02:25:35;6.20;99.90
4964;DHT22;2497;47.410;9.740;2023-11-22T02:28:03;6.20;99.90
4964;DHT22;2497;47.410;9.740;2023-11-22T02:30:30;6.20;99.90
4964;DHT22;2497;47.410;9.740;2023-11-22T02:32:57;6.20;99.90
4964;DHT22;2497;47.410;9.740;2023-11-22T02:35:24;6.30;99.90
4964;DHT22;2497;47.410;9.740;2023-11-22T02:37:52;6.30;99.90
4964;DHT22;2497;47.410;9.740;2023-11-22T02:40:21;6.20;99.90
4964;DHT22;2497;47.410;9.740;2023-11-22T02:42:51;6.20;99.90
4964;DHT22;2497;47.410;9.740;2023-11-22T02:45:21;6.20;99.90
4964;DHT22;2497;47.410;9.740;2023-11-22T02:47:49;6.30;99.90
4964;DHT22;2497;47.410;9.740;2023-11-22T02:50:18;6.20;99.90
4964;DHT22;2497;47.410;9.740;2023-11-22T02:52:45;6.30;99.90
4964;DHT22;2497;47.410;9.740;2023-11-22T02:55:12;6.30;99.90
4964;DHT22;2497;47.410;9.740;2023-11-22T02:57:41;6.30;99.90
4964;DHT22;2497;47.410;9.740;2023-11-22T03:00:10;6.30;99.90
4964;DHT22;2497;47.410;9.740;2023-11-22T03:02:42;6.30;99.90
4964;DHT22;2497;47.410;9.740;2023-11-22T03:05:09;6.40;99.90
4964;DHT22;2497;47.410;9.740;2023-11-22T03:07:37;6.40;99.90
4964;DHT22;2497;47.410;9.740;2023-11-22T03:10:05;6.30;99.90
4964;DHT22;2497;47.410;9.740;2023-11-22T03:12:33;6.30;99.90
4964;DHT22;2497;47.410;9.740;2023-11-22T03:15:02;6.40;99.90
4964;DHT22;2497;47.410;9.740;2023-11-22T03:17:30;6.40;99.90
4964;DHT22;2497;47.410;9.740;2023-11-22T03:19:58;6.40;99.90
4964;DHT22;2497;47.410;9.740;2023-11-22T03:22:26;6.40;99.90
4964;DHT22;2497;47.410;9.740;2023-11-22T03:24:55;6.40;99.90
4964;DHT22;2497;47.410;9.740;2023-11-22T03:27:24;6.40;99.90
4964;DHT22;2497;47.410;9.740;2023-11-22T03:29:51;6.40;99.90
4964;DHT22;2497;47.410;9.740;2023-11-22T03:32:20;6.30;99.90
4964;DHT22;2497;47.410;9.740;2023-11-22T03:34:49;6.40;99.90
4964;DHT22;2497;47.410;9.740;2023-11-22T03:37:16;6.40;99.90
4964;DHT22;2497;47.410;9.740;2023-11-22T03:39:43;6.30;99.90
4964;DHT22;2497;47.410;9.740;2023-11-22T03:42:14;6.40;99.90
4964;DHT22;2497;47.410;9.740;2023-11-22T03:44:41;6.40;99.90
4964;DHT22;2497;47.410;9.740;2023-11-22T03:47:09;6.40;99.90
4964;DHT22;2497;47.410;9.740;2023-11-22T03:49:39;6.40;99.90
4964;DHT22;2497;47.410;9.740;2023-11-22T03:52:06;6.40;99.90
4964;DHT22;2497;47.410;9.740;2023-11-22T03:54:34;6.40;99.90
4964;DHT22;2497;47.410;9.740;2023-11-22T03:57:03;6.40;99.90
4964;DHT22;2497;47.410;9.740;2023-11-22T03:59:30;6.40;99.90
4964;DHT22;2497;47.410;9.740;2023-11-22T04:01:57;6.30;99.90
4964;DHT22;2497;47.410;9.740;2023-11-22T04:04:25;6.30;99.90
4964;DHT22;2497;47.410;9.740;2023-11-22T04:06:53;6.30;99.90
4964;DHT22;2497;47.410;9.740;2023-11-22T04:09:20;6.30;99.90
4964;DHT22;2497;47.410;9.740;2023-11-22T04:11:48;6.30;99.90
4964;DHT22;2497;47.410;9.740;2023-11-22T04:14:15;6.30;99.90
4964;DHT22;2497;47.410;9.740;2023-11-22T04:16:42;6.30;99.90
4964;DHT22;2497;47.410;9.740;2023-11-22T04:19:09;6.30;99.90
4964;DHT22;2497;47.410;9.740;2023-11-22T04:21:36;6.30;99.90
4964;DHT22;2497;47.410;9.740;2023-11-22T04:24:06;6.20;99.90
4964;DHT22;2497;47.410;9.740;2023-11-22T04:26:33;6.20;99.90
4964;DHT22;2497;47.410;9.740;2023-11-22T04:29:00;6.20;99.90
4964;DHT22;2497;47.410;9.740;2023-11-22T04:31:28;6.20;99.90
4964;DHT22;2497;47.410;9.740;2023-11-22T04:33:55;6.20;99.90
4964;DHT22;2497;47.410;9.740;2023-11-22T04:36:23;6.20;99.90
4964;DHT22;2497;47.410;9.740;2023-11-22T04:38:50;6.10;99.90
4964;DHT22;2497;47.410;9.740;2023-11-22T04:41:19;6.20;99.90
4964;DHT22;2497;47.410;9.740;2023-11-22T04:43:46;6.20;99.90
4964;DHT22;2497;47.410;9.740;2023-11-22T04:46:14;6.20;99.90
4964;DHT22;2497;47.410;9.740;2023-11-22T04:48:42;6.20;99.90
4964;DHT22;2497;47.410;9.740;2023-11-22T04:51:10;6.20;99.90
4964;DHT22;2497;47.410;9.740;2023-11-22T04:53:37;6.20;99.90
4964;DHT22;2497;47.410;9.740;2023-11-22T04:56:05;6.20;99.90
4964;DHT22;2497;47.410;9.740;2023-11-22T04:58:36;6.20;99.90
4964;DHT22;2497;47.410;9.740;2023-11-22T05:01:03;6.20;99.90
4964;DHT22;2497;47.410;9.740;2023-11-22T05:03:30;6.20;99.90
4964;DHT22;2497;47.410;9.740;2023-11-22T05:05:58;6.20;99.90
4964;DHT22;2497;47.410;9.740;2023-11-22T05:08:25;6.20;99.90
4964;DHT22;2497;47.410;9.740;2023-11-22T05:13:43;6.20;99.90
4964;DHT22;2497;47.410;9.740;2023-11-22T05:16:11;6.20;99.90
4964;DHT22;2497;47.410;9.740;2023-11-22T05:18:47;6.20;99.90
4964;DHT22;2497;47.410;9.740;2023-11-22T05:21:14;6.10;99.90
4964;DHT22;2497;47.410;9.740;2023-11-22T05:23:51;6.20;99.90
4964;DHT22;2497;47.410;9.740;2023-11-22T05:26:20;6.20;99.90
4964;DHT22;2497;47.410;9.740;2023-11-22T05:28:48;6.20;99.90
4964;DHT22;2497;47.410;9.740;2023-11-22T05:31:16;6.20;99.90
4964;DHT22;2497;47.410;9.740;2023-11-22T05:33:43;6.20;99.90
4964;DHT22;2497;47.410;9.740;2023-11-22T05:36:10;6.20;99.90
4964;DHT22;2497;47.410;9.740;2023-11-22T05:38:37;6.20;99.90
4964;DHT22;2497;47.410;9.740;2023-11-22T05:41:13;6.10;99.90
4964;DHT22;2497;47.410;9.740;2023-11-22T05:43:51;6.10;99.90
4964;DHT22;2497;47.410;9.740;2023-11-22T05:46:43;6.10;99.90
4964;DHT22;2497;47.410;9.740;2023-11-22T05:49:13;6.10;99.90
4964;DHT22;2497;47.410;9.740;2023-11-22T05:51:40;6.10;99.90
4964;DHT22;2497;47.410;9.740;2023-11-22T05:54:07;6.10;99.90
4964;DHT22;2497;47.410;9.740;2023-11-22T05:56:34;6.30;99.90
4964;DHT22;2497;47.410;9.740;2023-11-22T05:59:05;6.40;99.90
4964;DHT22;2497;47.410;9.740;2023-11-22T06:01:32;6.40;99.90
4964;DHT22;2497;47.410;9.740;2023-11-22T06:03:59;6.40;99.90
4964;DHT22;2497;47.410;9.740;2023-11-22T06:06:27;6.40;99.90
4964;DHT22;2497;47.410;9.740;2023-11-22T06:08:54;6.40;99.90
4964;DHT22;2497;47.410;9.740;2023-11-22T06:11:21;6.30;99.90
4964;DHT22;2497;47.410;9.740;2023-11-22T06:13:48;6.30;99.90
4964;DHT22;2497;47.410;9.740;2023-11-22T06:16:16;6.30;99.90
4964;DHT22;2497;47.410;9.740;2023-11-22T06:18:44;6.20;99.90
4964;DHT22;2497;47.410;9.740;2023-11-22T06:21:11;6.20;99.90
4964;DHT22;2497;47.410;9.740;2023-11-22T06:23:39;6.30;99.90
4964;DHT22;2497;47.410;9.740;2023-11-22T06:26:06;6.20;99.90
4964;DHT22;2497;47.410;9.740;2023-11-22T06:28:33;6.20;99.90
4964;DHT22;2497;47.410;9.740;2023-11-22T06:31:00;6.10;99.90
4964;DHT22;2497;47.410;9.740;2023-11-22T06:33:29;6.10;99.90
4964;DHT22;2497;47.410;9.740;2023-11-22T06:35:57;6.10;99.90
4964;DHT22;2497;47.410;9.740;2023-11-22T06:38:24;6.10;99.90
4964;DHT22;2497;47.410;9.740;2023-11-22T06:40:51;6.10;99.90
4964;DHT22;2497;47.410;9.740;2023-11-22T06:43:18;6.10;99.90
4964;DHT22;2497;47.410;9.740;2023-11-22T06:45:45;6.10;99.90
4964;DHT22;2497;47.410;9.740;2023-11-22T06:48:12;6.10;99.90
4964;DHT22;2497;47.410;9.740;2023-11-22T06:50:40;6.10;99.90
4964;DHT22;2497;47.410;9.740;2023-11-22T06:53:07;6.10;99.90
4964;DHT22;2497;47.410;9.740;2023-11-22T06:55:35;6.10;99.90
4964;DHT22;2497;47.410;9.740;2023-11-22T06:58:05;6.10;99.90
4964;DHT22;2497;47.410;9.740;2023-11-22T07:00:33;6.20;99.90
4964;DHT22;2497;47.410;9.740;2023-11-22T07:03:00;6.10;99.90
4964;DHT22;2497;47.410;9.740;2023-11-22T07:05:28;6.10;99.90
4964;DHT22;2497;47.410;9.740;2023-11-22T07:07:57;6.20;99.90
4964;DHT22;2497;47.410;9.740;2023-11-22T07:10:24;6.20;99.90
4964;DHT22;2497;47.410;9.740;2023-11-22T07:12:52;6.30;99.90
4964;DHT22;2497;47.410;9.740;2023-11-22T07:15:19;6.30;99.90
4964;DHT22;2497;47.410;9.740;2023-11-22T07:17:46;6.40;99.90
4964;DHT22;2497;47.410;9.740;2023-11-22T07:20:14;6.30;99.90
4964;DHT22;2497;47.410;9.740;2023-11-22T07:22:43;6.30;99.90
4964;DHT22;2497;47.410;9.740;2023-11-22T07:25:11;6.30;99.90
4964;DHT22;2497;47.410;9.740;2023-11-22T07:27:44;6.30;99.90
4964;DHT22;2497;47.410;9.740;2023-11-22T07:30:13;6.20;99.90
4964;DHT22;2497;47.410;9.740;2023-11-22T07:32:40;6.20;99.90
4964;DHT22;2497;47.410;9.740;2023-11-22T07:35:07;6.10;99.90
4964;DHT22;2497;47.410;9.740;2023-11-22T07:37:35;6.10;99.90
4964;DHT22;2497;47.410;9.740;2023-11-22T07:40:06;6.00;99.90
4964;DHT22;2497;47.410;9.740;2023-11-22T07:42:36;5.80;99.90
4964;DHT22;2497;47.410;9.740;2023-11-22T07:45:04;5.90;99.90
4964;DHT22;2497;47.410;9.740;2023-11-22T07:47:31;5.80;99.90
4964;DHT22;2497;47.410;9.740;2023-11-22T07:49:58;5.70;99.90
4964;DHT22;2497;47.410;9.740;2023-11-22T07:52:27;5.70;99.90
4964;DHT22;2497;47.410;9.740;2023-11-22T07:54:55;5.60;99.90
4964;DHT22;2497;47.410;9.740;2023-11-22T07:57:23;5.60;99.90
4964;DHT22;2497;47.410;9.740;2023-11-22T07:59:52;5.60;99.90
4964;DHT22;2497;47.410;9.740;2023-11-22T08:02:21;5.60;99.90
4964;DHT22;2497;47.410;9.740;2023-11-22T08:04:49;5.50;99.90
4964;DHT22;2497;47.410;9.740;2023-11-22T08:07:17;5.50;99.90
4964;DHT22;2497;47.410;9.740;2023-11-22T08:09:44;5.50;99.90
4964;DHT22;2497;47.410;9.740;2023-11-22T08:12:11;5.50;99.90
4964;DHT22;2497;47.410;9.740;2023-11-22T08:14:39;5.50;99.90
4964;DHT22;2497;47.410;9.740;2023-11-22T08:17:07;5.50;99.90
4964;DHT22;2497;47.410;9.740;2023-11-22T08:19:35;5.40;99.90
4964;DHT22;2497;47.410;9.740;2023-11-22T08:22:02;5.40;99.90
4964;DHT22;2497;47.410;9.740;2023-11-22T08:24:29;5.30;99.90
4964;DHT22;2497;47.410;9.740;2023-11-22T08:26:59;5.40;99.90
4964;DHT22;2497;47.410;9.740;2023-11-22T08:29:26;5.40;99.90
4964;DHT22;2497;47.410;9.740;2023-11-22T08:31:53;5.40;99.90
4964;DHT22;2497;47.410;9.740;2023-11-22T08:34:22;5.50;99.90
4964;DHT22;2497;47.410;9.740;2023-11-22T08:36:49;5.50;99.90
4964;DHT22;2497;47.410;9.740;2023-11-22T08:39:16;5.40;99.90
4964;DHT22;2497;47.410;9.740;2023-11-22T08:41:43;5.40;99.90
4964;DHT22;2497;47.410;9.740;2023-11-22T08:44:10;5.40;99.90
4964;DHT22;2497;47.410;9.740;2023-11-22T08:46:37;5.40;99.90
4964;DHT22;2497;47.410;9.740;2023-11-22T08:49:04;5.40;99.90
4964;DHT22;2497;47.410;9.740;2023-11-22T08:51:33;5.50;99.90
4964;DHT22;2497;47.410;9.740;2023-11-22T08:54:00;5.60;99.90
4964;DHT22;2497;47.410;9.740;2023-11-22T08:56:28;5.60;99.90
4964;DHT22;2497;47.410;9.740;2023-11-22T08:58:55;5.60;99.90
4964;DHT22;2497;47.410;9.740;2023-11-22T09:01:22;5.40;99.90
4964;DHT22;2497;47.410;9.740;2023-11-22T09:03:51;5.50;99.90
4964;DHT22;2497;47.410;9.740;2023-11-22T09:06:18;5.40;99.90
4964;DHT22;2497;47.410;9.740;2023-11-22T09:08:47;5.50;99.90
4964;DHT22;2497;47.410;9.740;2023-11-22T09:11:20;5.50;99.90
4964;DHT22;2497;47.410;9.740;2023-11-22T09:13:48;5.50;99.90
4964;DHT22;2497;47.410;9.740;2023-11-22T09:16:15;5.50;99.90
4964;DHT22;2497;47.410;9.740;2023-11-22T09:18:45;5.50;99.90
4964;DHT22;2497;47.410;9.740;2023-11-22T09:21:13;5.50;99.90
4964;DHT22;2497;47.410;9.740;2023-11-22T09:23:42;5.60;99.90
4964;DHT22;2497;47.410;9.740;2023-11-22T09:26:10;5.60;99.90
4964;DHT22;2497;47.410;9.740;2023-11-22T09:28:37;5.60;99.90
4964;DHT22;2497;47.410;9.740;2023-11-22T09:31:06;5.60;99.90
4964;DHT22;2497;47.410;9.740;2023-11-22T09:33:33;5.60;99.90
4964;DHT22;2497;47.410;9.740;2023-11-22T09:36:00;5.60;99.90
4964;DHT22;2497;47.410;9.740;2023-11-22T09:38:29;5.60;99.90
4964;DHT22;2497;47.410;9.740;2023-11-22T09:40:57;5.60;99.90
4964;DHT22;2497;47.410;9.740;2023-11-22T09:43:26;5.60;99.90
4964;DHT22;2497;47.410;9.740;2023-11-22T09:45:54;5.60;99.90
4964;DHT22;2497;47.410;9.740;2023-11-22T09:48:23;5.60;99.90
4964;DHT22;2497;47.410;9.740;2023-11-22T09:50:57;5.70;99.90
4964;DHT22;2497;47.410;9.740;2023-11-22T09:53:31;5.70;99.90
4964;DHT22;2497;47.410;9.740;2023-11-22T09:55:59;5.90;99.90
4964;DHT22;2497;47.410;9.740;2023-11-22T09:58:30;5.90;99.90
4964;DHT22;2497;47.410;9.740;2023-11-22T10:00:59;6.00;99.90
4964;DHT22;2497;47.410;9.740;2023-11-22T10:03:27;6.10;99.90
4964;DHT22;2497;47.410;9.740;2023-11-22T10:05:56;6.10;99.90
4964;DHT22;2497;47.410;9.740;2023-11-22T10:08:24;6.20;99.90
4964;DHT22;2497;47.410;9.740;2023-11-22T10:10:53;6.20;99.90
4964;DHT22;2497;47.410;9.740;2023-11-22T10:13:21;6.20;99.90
4964;DHT22;2497;47.410;9.740;2023-11-22T10:15:50;6.10;99.90
4964;DHT22;2497;47.410;9.740;2023-11-22T10:18:18;6.10;99.90
4964;DHT22;2497;47.410;9.740;2023-11-22T10:20:48;5.90;99.90
4964;DHT22;2497;47.410;9.740;2023-11-22T10:23:17;5.90;99.90
4964;DHT22;2497;47.410;9.740;2023-11-22T10:25:46;5.80;99.90
4964;DHT22;2497;47.410;9.740;2023-11-22T10:28:15;5.90;99.90
4964;DHT22;2497;47.410;9.740;2023-11-22T10:30:43;5.90;99.90
4964;DHT22;2497;47.410;9.740;2023-11-22T10:33:12;6.00;99.90
4964;DHT22;2497;47.410;9.740;2023-11-22T10:35:42;5.90;99.90
4964;DHT22;2497;47.410;9.740;2023-11-22T10:38:10;5.80;99.90
4964;DHT22;2497;47.410;9.740;2023-11-22T10:40:40;5.80;99.90
4964;DHT22;2497;47.410;9.740;2023-11-22T10:43:11;5.80;99.90
4964;DHT22;2497;47.410;9.740;2023-11-22T10:45:38;5.90;99.90
4964;DHT22;2497;47.410;9.740;2023-11-22T10:48:07;5.80;99.90
4964;DHT22;2497;47.410;9.740;2023-11-22T10:50:37;5.70;99.90
4964;DHT22;2497;47.410;9.740;2023-11-22T10:53:07;5.80;99.90
4964;DHT22;2497;47.410;9.740;2023-11-22T10:55:37;5.80;99.90
4964;DHT22;2497;47.410;9.740;2023-11-22T10:58:08;5.70;99.90
4964;DHT22;2497;47.410;9.740;2023-11-22T11:00:40;5.70;99.90
4964;DHT22;2497;47.410;9.740;2023-11-22T11:03:17;5.70;99.90
4964;DHT22;2497;47.410;9.740;2023-11-22T11:05:52;5.70;99.90
4964;DHT22;2497;47.410;9.740;2023-11-22T11:08:20;5.70;99.90
4964;DHT22;2497;47.410;9.740;2023-11-22T11:10:48;5.70;99.90
4964;DHT22;2497;47.410;9.740;2023-11-22T11:13:16;5.60;99.90
4964;DHT22;2497;47.410;9.740;2023-11-22T11:15:44;5.60;99.90
4964;DHT22;2497;47.410;9.740;2023-11-22T11:18:15;5.50;99.90
4964;DHT22;2497;47.410;9.740;2023-11-22T11:20:48;5.50;99.90
4964;DHT22;2497;47.410;9.740;2023-11-22T11:23:16;5.40;99.90
4964;DHT22;2497;47.410;9.740;2023-11-22T11:25:47;5.40;99.90
4964;DHT22;2497;47.410;9.740;2023-11-22T11:28:14;5.30;99.90
4964;DHT22;2497;47.410;9.740;2023-11-22T11:30:43;5.30;99.90
4964;DHT22;2497;47.410;9.740;2023-11-22T11:33:12;5.20;99.90
4964;DHT22;2497;47.410;9.740;2023-11-22T11:35:43;5.20;99.90
4964;DHT22;2497;47.410;9.740;2023-11-22T11:38:14;5.20;99.90
4964;DHT22;2497;47.410;9.740;2023-11-22T11:40:43;5.20;99.90
4964;DHT22;2497;47.410;9.740;2023-11-22T11:43:10;5.20;99.90
4964;DHT22;2497;47.410;9.740;2023-11-22T11:45:42;5.20;99.90
4964;DHT22;2497;47.410;9.740;2023-11-22T11:48:12;5.20;99.90
4964;DHT22;2497;47.410;9.740;2023-11-22T11:50:43;5.20;99.90
4964;DHT22;2497;47.410;9.740;2023-11-22T11:53:10;5.20;99.90
4964;DHT22;2497;47.410;9.740;2023-11-22T11:55:38;5.10;99.90
4964;DHT22;2497;47.410;9.740;2023-11-22T11:58:11;5.20;99.90
4964;DHT22;2497;47.410;9.740;2023-11-22T12:00:38;5.10;99.90
4964;DHT22;2497;47.410;9.740;2023-11-22T12:03:07;5.10;99.90
4964;DHT22;2497;47.410;9.740;2023-11-22T12:05:36;5.10;99.90
4964;DHT22;2497;47.410;9.740;2023-11-22T12:08:04;5.10;99.90
4964;DHT22;2497;47.410;9.740;2023-11-22T12:10:31;5.10;99.90
4964;DHT22;2497;47.410;9.740;2023-11-22T12:12:59;5.00;99.90
4964;DHT22;2497;47.410;9.740;2023-11-22T12:15:27;5.00;99.90
4964;DHT22;2497;47.410;9.740;2023-11-22T12:17:55;5.10;99.90
4964;DHT22;2497;47.410;9.740;2023-11-22T12:20:23;5.10;99.90
4964;DHT22;2497;47.410;9.740;2023-11-22T12:22:52;5.00;99.90
4964;DHT22;2497;47.410;9.740;2023-11-22T12:25:19;5.10;99.90
4964;DHT22;2497;47.410;9.740;2023-11-22T12:27:47;5.10;99.90
4964;DHT22;2497;47.410;9.740;2023-11-22T12:30:32;5.10;99.90
4964;DHT22;2497;47.410;9.740;2023-11-22T12:33:04;5.20;99.90
4964;DHT22;2497;47.410;9.740;2023-11-22T12:35:31;5.10;99.90
4964;DHT22;2497;47.410;9.740;2023-11-22T12:38:00;5.00;99.90
4964;DHT22;2497;47.410;9.740;2023-11-22T12:40:28;5.00;99.90
4964;DHT22;2497;47.410;9.740;2023-11-22T12:42:57;5.00;99.90
4964;DHT22;2497;47.410;9.740;2023-11-22T12:45:26;5.10;99.90
4964;DHT22;2497;47.410;9.740;2023-11-22T12:47:56;5.10;99.90
4964;DHT22;2497;47.410;9.740;2023-11-22T12:50:34;5.20;99.90
4964;DHT22;2497;47.410;9.740;2023-11-22T12:53:10;5.20;99.90
4964;DHT22;2497;47.410;9.740;2023-11-22T12:55:41;5.20;99.90
4964;DHT22;2497;47.410;9.740;2023-11-22T12:58:08;5.10;99.90
4964;DHT22;2497;47.410;9.740;2023-11-22T13:00:35;5.20;99.90
4964;DHT22;2497;47.410;9.740;2023-11-22T13:03:06;5.10;99.90
4964;DHT22;2497;47.410;9.740;2023-11-22T13:05:35;5.10;99.90
4964;DHT22;2497;47.410;9.740;2023-11-22T13:08:03;5.00;99.90
4964;DHT22;2497;47.410;9.740;2023-11-22T13:10:31;5.00;99.90
4964;DHT22;2497;47.410;9.740;2023-11-22T13:12:58;5.00;99.90
4964;DHT22;2497;47.410;9.740;2023-11-22T13:15:26;5.00;99.90
4964;DHT22;2497;47.410;9.740;2023-11-22T13:17:54;5.10;99.90
4964;DHT22;2497;47.410;9.740;2023-11-22T13:20:26;5.00;99.90
4964;DHT22;2497;47.410;9.740;2023-11-22T13:22:54;5.10;99.90
4964;DHT22;2497;47.410;9.740;2023-11-22T13:25:22;5.10;99.90
4964;DHT22;2497;47.410;9.740;2023-11-22T13:27:50;5.10;99.90
4964;DHT22;2497;47.410;9.740;2023-11-22T13:30:18;5.00;99.90
4964;DHT22;2497;47.410;9.740;2023-11-22T13:32:49;5.00;99.90
4964;DHT22;2497;47.410;9.740;2023-11-22T13:35:17;5.10;99.90
4964;DHT22;2497;47.410;9.740;2023-11-22T13:37:47;5.10;99.90
4964;DHT22;2497;47.410;9.740;2023-11-22T13:40:15;5.10;99.90
4964;DHT22;2497;47.410;9.740;2023-11-22T13:42:44;5.00;99.90
4964;DHT22;2497;47.410;9.740;2023-11-22T13:45:12;5.10;99.90
4964;DHT22;2497;47.410;9.740;2023-11-22T13:47:42;5.00;99.90
4964;DHT22;2497;47.410;9.740;2023-11-22T13:50:10;5.00;99.90
4964;DHT22;2497;47.410;9.740;2023-11-22T13:52:40;5.00;99.90
4964;DHT22;2497;47.410;9.740;2023-11-22T13:55:08;4.90;99.90
4964;DHT22;2497;47.410;9.740;2023-11-22T13:57:38;4.90;99.90
4964;DHT22;2497;47.410;9.740;2023-11-22T14:00:06;5.00;99.90
4964;DHT22;2497;47.410;9.740;2023-11-22T14:02:37;5.00;99.90
4964;DHT22;2497;47.410;9.740;2023-11-22T14:05:04;5.00;99.90
4964;DHT22;2497;47.410;9.740;2023-11-22T14:07:34;5.00;99.90
4964;DHT22;2497;47.410;9.740;2023-11-22T14:10:05;5.00;99.90
4964;DHT22;2497;47.410;9.740;2023-11-22T14:12:34;4.90;99.90
4964;DHT22;2497;47.410;9.740;2023-11-22T14:15:01;5.00;99.90
4964;DHT22;2497;47.410;9.740;2023-11-22T14:17:30;4.90;99.90
4964;DHT22;2497;47.410;9.740;2023-11-22T14:19:57;4.90;99.90
4964;DHT22;2497;47.410;9.740;2023-11-22T14:22:25;4.90;99.90
4964;DHT22;2497;47.410;9.740;2023-11-22T14:24:53;4.90;99.90
4964;DHT22;2497;47.410;9.740;2023-11-22T14:27:20;4.90;99.90
4964;DHT22;2497;47.410;9.740;2023-11-22T14:29:49;4.80;99.90
4964;DHT22;2497;47.410;9.740;2023-11-22T14:32:19;4.80;99.90
4964;DHT22;2497;47.410;9.740;2023-11-22T14:34:46;4.70;99.90
4964;DHT22;2497;47.410;9.740;2023-11-22T14:37:13;4.70;99.90
4964;DHT22;2497;47.410;9.740;2023-11-22T14:39:41;4.70;99.90
4964;DHT22;2497;47.410;9.740;2023-11-22T14:42:08;4.70;99.90
4964;DHT22;2497;47.410;9.740;2023-11-22T14:44:37;4.70;99.90
4964;DHT22;2497;47.410;9.740;2023-11-22T14:47:06;4.60;99.90
4964;DHT22;2497;47.410;9.740;2023-11-22T14:49:41;4.50;99.90
4964;DHT22;2497;47.410;9.740;2023-11-22T14:52:08;4.50;99.90
4964;DHT22;2497;47.410;9.740;2023-11-22T14:54:36;4.50;99.90
4964;DHT22;2497;47.410;9.740;2023-11-22T14:57:03;4.40;99.90
4964;DHT22;2497;47.410;9.740;2023-11-22T14:59:33;4.40;99.90
4964;DHT22;2497;47.410;9.740;2023-11-22T15:02:00;4.20;99.90
4964;DHT22;2497;47.410;9.740;2023-11-22T15:04:31;4.30;99.90
4964;DHT22;2497;47.410;9.740;2023-11-22T15:07:00;4.20;99.90
4964;DHT22;2497;47.410;9.740;2023-11-22T15:09:27;4.20;99.90
4964;DHT22;2497;47.410;9.740;2023-11-22T15:11:57;4.10;99.90
4964;DHT22;2497;47.410;9.740;2023-11-22T15:14:25;4.20;99.90
4964;DHT22;2497;47.410;9.740;2023-11-22T15:16:52;4.20;99.90
4964;DHT22;2497;47.410;9.740;2023-11-22T15:19:20;4.20;99.90
4964;DHT22;2497;47.410;9.740;2023-11-22T15:21:51;4.10;99.90
4964;DHT22;2497;47.410;9.740;2023-11-22T15:24:19;4.20;99.90
4964;DHT22;2497;47.410;9.740;2023-11-22T15:26:46;4.20;99.90
4964;DHT22;2497;47.410;9.740;2023-11-22T15:29:13;4.20;99.90
4964;DHT22;2497;47.410;9.740;2023-11-22T15:31:42;4.10;99.90
4964;DHT22;2497;47.410;9.740;2023-11-22T15:34:10;4.10;99.90
4964;DHT22;2497;47.410;9.740;2023-11-22T15:36:38;4.10;99.90
4964;DHT22;2497;47.410;9.740;2023-11-22T15:39:07;4.10;99.90
4964;DHT22;2497;47.410;9.740;2023-11-22T15:41:38;4.10;99.90
4964;DHT22;2497;47.410;9.740;2023-11-22T15:44:06;4.00;99.90
4964;DHT22;2497;47.410;9.740;2023-11-22T15:46:33;4.00;99.90
4964;DHT22;2497;47.410;9.740;2023-11-22T15:49:00;4.00;99.90
4964;DHT22;2497;47.410;9.740;2023-11-22T15:51:29;4.10;99.90
4964;DHT22;2497;47.410;9.740;2023-11-22T15:53:56;4.00;99.90
4964;DHT22;2497;47.410;9.740;2023-11-22T15:56:25;4.00;99.90
4964;DHT22;2497;47.410;9.740;2023-11-22T15:58:53;3.90;99.90
4964;DHT22;2497;47.410;9.740;2023-11-22T16:01:24;3.90;99.90
4964;DHT22;2497;47.410;9.740;2023-11-22T16:03:51;3.80;99.90
4964;DHT22;2497;47.410;9.740;2023-11-22T16:06:18;3.90;99.90
4964;DHT22;2497;47.410;9.740;2023-11-22T16:08:46;3.90;99.90
4964;DHT22;2497;47.410;9.740;2023-11-22T16:11:13;3.90;99.90
4964;DHT22;2497;47.410;9.740;2023-11-22T16:13:43;3.90;99.90
4964;DHT22;2497;47.410;9.740;2023-11-22T16:16:11;3.90;99.90
4964;DHT22;2497;47.410;9.740;2023-11-22T16:18:38;3.90;99.90
4964;DHT22;2497;47.410;9.740;2023-11-22T16:21:06;3.90;99.90
4964;DHT22;2497;47.410;9.740;2023-11-22T16:23:36;3.80;99.90
4964;DHT22;2497;47.410;9.740;2023-11-22T16:26:03;3.80;99.90
4964;DHT22;2497;47.410;9.740;2023-11-22T16:28:31;3.70;99.90